createdAt,value
2022-09-23T00:04:17.849Z,101704.73
2022-09-23T00:09:24.492Z,101702.83
2022-09-23T00:14:29.872Z,101690.92
2022-09-23T00:19:35.506Z,101695.28
2022-09-23T00:24:40.896Z,101686.91
2022-09-23T00:29:46.302Z,101686.91
2022-09-23T00:34:52.056Z,101681.80
2022-09-23T00:39:57.612Z,101685.20
2022-09-23T00:45:03.261Z,101687.52
2022-09-23T00:50:33.985Z,101682.64
2022-09-23T00:55:45.066Z,101680.38
2022-09-23T01:00:50.814Z,101675.26
2022-09-23T01:05:57.823Z,101670.27
2022-09-23T01:11:18.961Z,101671.55
2022-09-23T01:16:45.523Z,101670.33
2022-09-23T01:22:01.332Z,101664.11
2022-09-23T01:27:13.786Z,101662.83
2022-09-23T01:32:42.937Z,101653.48
2022-09-23T01:37:53.970Z,101645.94
2022-09-23T01:43:05.171Z,101646.92
2022-09-23T01:48:34.891Z,101636.82
2022-09-23T01:53:46.390Z,101640.91
2022-09-23T01:58:54.823Z,101637.95
2022-09-23T02:04:12.878Z,101629.07
2022-09-23T02:09:21.307Z,101631.33
2022-09-23T02:14:32.563Z,101624.25
2022-09-23T02:19:46.459Z,101631.85
2022-09-23T02:24:54.104Z,101623.91
2022-09-23T02:30:09.528Z,101614.56
2022-09-23T02:35:29.372Z,101607.06
2022-09-23T02:40:43.580Z,101603.13
2022-09-23T02:45:49.962Z,101599.23
2022-09-23T02:50:56.281Z,101594.97
2022-09-23T02:56:03.381Z,101583.88
2022-09-23T03:01:11.858Z,101584.00
2022-09-23T03:06:32.173Z,101581.09
2022-09-23T03:11:41.038Z,101591.00
2022-09-23T03:17:01.547Z,101583.66
2022-09-23T03:22:21.907Z,101572.86
2022-09-23T03:27:30.338Z,101571.22
2022-09-23T03:32:38.436Z,101561.53
2022-09-23T03:37:49.723Z,101552.80
2022-09-23T03:42:57.229Z,101550.55
2022-09-23T03:48:03.088Z,101543.23
2022-09-23T03:53:08.657Z,101536.51
2022-09-23T03:58:14.686Z,101540.50
2022-09-23T04:03:20.536Z,101530.70
2022-09-23T04:08:26.964Z,101528.73
2022-09-23T04:13:32.891Z,101516.33
2022-09-23T04:18:38.273Z,101527.72
2022-09-23T04:23:44.097Z,101522.64
2022-09-23T04:28:49.572Z,101523.16
2022-09-23T04:33:55.597Z,101516.48
2022-09-23T04:39:02.040Z,101510.55
2022-09-23T04:44:07.522Z,101511.78
2022-09-23T04:49:13.286Z,101506.56
2022-09-23T04:54:19.139Z,101509.22
2022-09-23T04:59:25.101Z,101513.72
2022-09-23T05:04:31.573Z,101518.55
2022-09-23T05:09:37.121Z,101515.53
2022-09-23T05:14:42.673Z,101515.83
2022-09-23T05:19:48.137Z,101518.23
2022-09-23T05:24:54.209Z,101511.73
2022-09-23T05:30:01.180Z,101520.22
2022-09-23T05:35:08.184Z,101514.22
2022-09-23T05:40:13.615Z,101504.20
2022-09-23T05:45:19.113Z,101512.24
2022-09-23T05:50:24.524Z,101507.96
2022-09-23T05:55:29.927Z,101504.39
2022-09-23T06:00:35.387Z,101499.46
2022-09-23T06:05:41.123Z,101495.36
2022-09-23T06:10:53.535Z,101491.00
2022-09-23T06:15:58.942Z,101494.18
2022-09-23T06:21:05.996Z,101496.97
2022-09-23T06:26:14.245Z,101496.64
2022-09-23T06:31:20.034Z,101499.44
2022-09-23T06:36:40.878Z,101506.77
2022-09-23T06:41:32.695Z,101502.73
2022-09-23T06:46:38.158Z,101503.55
2022-09-23T06:51:43.843Z,101511.53
2022-09-23T06:56:49.244Z,101515.06
2022-09-23T07:01:55.038Z,101515.67
2022-09-23T07:07:00.606Z,101520.33
2022-09-23T07:12:06.083Z,101514.98
2022-09-23T07:17:14.032Z,101516.08
2022-09-23T07:22:19.897Z,101511.12
2022-09-23T07:27:29.524Z,101512.05
2022-09-23T07:32:45.014Z,101511.23
2022-09-23T07:37:42.013Z,101516.47
2022-09-23T07:42:48.085Z,101514.63
2022-09-23T07:47:53.462Z,101506.03
2022-09-23T07:52:58.852Z,101509.81
2022-09-23T07:58:04.258Z,101509.06
2022-09-23T08:03:10.305Z,101508.78
2022-09-23T08:08:15.853Z,101504.63
2022-09-23T08:13:21.312Z,101509.83
2022-09-23T08:18:27.052Z,101504.06
2022-09-23T08:23:34.035Z,101509.88
2022-09-23T08:28:39.884Z,101506.62
2022-09-23T08:33:45.277Z,101501.91
2022-09-23T08:38:50.731Z,101501.72
2022-09-23T08:43:59.261Z,101500.75
2022-09-23T08:49:07.754Z,101501.97
2022-09-23T08:54:13.977Z,101488.83
2022-09-23T08:59:38.199Z,101488.67
2022-09-23T09:04:46.625Z,101489.90
2022-09-23T09:10:12.755Z,101487.66
2022-09-23T09:15:25.021Z,101482.84
2022-09-23T09:20:54.854Z,101473.61
2022-09-23T09:26:05.160Z,101481.63
2022-09-23T09:31:22.555Z,101475.91
2022-09-23T09:36:36.942Z,101471.55
2022-09-23T09:41:45.426Z,101473.06
2022-09-23T09:47:00.677Z,101463.30
2022-09-23T09:52:20.467Z,101457.58
2022-09-23T09:57:35.195Z,101448.02
2022-09-23T10:02:42.365Z,101445.58
2022-09-23T10:07:48.758Z,101438.38
2022-09-23T10:12:54.425Z,101433.73
2022-09-23T10:18:03.780Z,101430.59
2022-09-23T10:23:14.813Z,101424.47
2022-09-23T10:28:43.878Z,101433.11
2022-09-23T10:33:51.370Z,101421.61
2022-09-23T10:39:21.056Z,101409.63
2022-09-23T10:44:56.201Z,101404.81
2022-09-23T10:50:04.915Z,101412.33
2022-09-23T10:55:16.061Z,101405.92
2022-09-23T11:00:30.355Z,101408.02
2022-09-23T11:05:47.884Z,101407.28
2022-09-23T11:11:11.618Z,101401.52
2022-09-23T11:16:32.264Z,101394.62
2022-09-23T11:21:58.821Z,101385.97
2022-09-23T11:27:07.253Z,101378.84
2022-09-23T11:32:33.857Z,101369.84
2022-09-23T11:37:42.290Z,101368.33
2022-09-23T11:43:02.510Z,101357.73
2022-09-23T11:48:16.798Z,101359.55
2022-09-23T11:53:25.231Z,101354.84
2022-09-23T11:58:36.475Z,101351.23
2022-09-23T12:03:53.719Z,101349.56
2022-09-23T12:09:08.338Z,101351.85
2022-09-23T12:14:28.293Z,101340.16
2022-09-23T12:19:56.444Z,101333.25
2022-09-23T12:25:38.285Z,101324.53
2022-09-23T12:30:44.978Z,101318.85
2022-09-23T12:35:50.976Z,101319.19
2022-09-23T12:40:57.402Z,101315.36
2022-09-23T12:46:27.568Z,101305.88
2022-09-23T12:51:35.929Z,101296.20
2022-09-23T12:56:44.353Z,101296.68
2022-09-23T13:01:50.075Z,101287.16
2022-09-23T13:07:01.616Z,101286.27
2022-09-23T13:12:10.504Z,101272.77
2022-09-23T13:17:28.061Z,101266.30
2022-09-23T13:22:54.331Z,101250.02
2022-09-23T13:28:05.008Z,101249.82
2022-09-23T13:33:19.400Z,101244.59
2022-09-23T13:38:28.219Z,101236.31
2022-09-23T13:43:41.382Z,101243.33
2022-09-23T13:48:49.114Z,101241.85
2022-09-23T13:53:57.586Z,101228.07
2022-09-23T13:59:28.879Z,101225.54
2022-09-23T14:04:34.279Z,101217.83
2022-09-23T14:09:45.987Z,101216.62
2022-09-23T14:14:53.502Z,101212.58
2022-09-23T14:19:58.969Z,101208.61
2022-09-23T14:25:04.713Z,101201.16
2022-09-23T14:30:21.161Z,101196.63
2022-09-23T14:35:29.772Z,101194.45
2022-09-23T14:40:40.945Z,101187.69
2022-09-23T14:45:50.590Z,101179.41
2022-09-23T14:51:04.656Z,101172.21
2022-09-23T14:56:20.557Z,101164.47
2022-09-23T15:01:34.859Z,101159.48
2022-09-23T15:06:42.869Z,101155.31
2022-09-23T15:11:48.550Z,101152.50
2022-09-23T15:16:55.122Z,101154.89
2022-09-23T15:22:00.608Z,101151.94
2022-09-23T15:27:27.119Z,101150.23
2022-09-23T15:32:32.530Z,101145.19
2022-09-23T15:37:38.035Z,101137.55
2022-09-23T15:42:48.284Z,101134.11
2022-09-23T15:47:53.949Z,101134.20
2022-09-23T15:52:59.992Z,101137.06
2022-09-23T15:58:05.404Z,101136.39
2022-09-23T16:03:15.703Z,101144.29
2022-09-23T16:08:22.817Z,101142.25
2022-09-23T16:13:28.209Z,101144.73
2022-09-23T16:18:34.186Z,101149.17
2022-09-23T16:23:46.906Z,101140.12
2022-09-23T16:28:55.021Z,101140.25
2022-09-23T16:34:02.147Z,101134.81
2022-09-23T16:39:10.571Z,101130.72
2022-09-23T16:44:16.495Z,101131.64
2022-09-23T16:49:21.931Z,101128.22
2022-09-23T16:54:27.328Z,101123.91
2022-09-23T16:59:34.370Z,101134.30
2022-09-23T17:04:40.809Z,101132.20
2022-09-23T17:09:46.356Z,101130.78
2022-09-23T17:14:52.799Z,101128.91
2022-09-23T17:19:58.380Z,101116.22
2022-09-23T17:25:03.963Z,101118.06
2022-09-23T17:30:10.736Z,101116.93
2022-09-23T17:35:16.215Z,101113.58
2022-09-23T17:40:21.673Z,101114.11
2022-09-23T17:45:27.427Z,101113.33
2022-09-23T17:50:33.067Z,101102.44
2022-09-23T17:55:38.615Z,101103.52
2022-09-23T18:00:46.960Z,101110.67
2022-09-23T18:05:52.652Z,101106.04
2022-09-23T18:11:01.341Z,101097.98
2022-09-23T18:16:07.149Z,101097.35
2022-09-23T18:21:12.846Z,101095.05
2022-09-23T18:26:20.518Z,101092.66
2022-09-23T18:31:26.572Z,101093.91
2022-09-23T18:36:33.290Z,101090.98
2022-09-23T18:41:39.248Z,101093.67
2022-09-23T18:46:45.009Z,101093.95
2022-09-23T18:51:58.651Z,101093.77
2022-09-23T18:57:04.749Z,101092.36
2022-09-23T19:02:10.399Z,101087.27
2022-09-23T19:07:16.041Z,101091.11
2022-09-23T19:12:22.817Z,101085.48
2022-09-23T19:17:29.662Z,101091.42
2022-09-23T19:22:35.263Z,101088.16
2022-09-23T19:27:40.731Z,101086.62
2022-09-23T19:32:49.025Z,101085.84
2022-09-23T19:37:54.549Z,101091.53
2022-09-23T19:42:59.994Z,101093.92
2022-09-23T19:48:07.836Z,101086.81
2022-09-23T19:53:13.971Z,101083.55
2022-09-23T19:58:19.866Z,101082.70
2022-09-23T20:03:26.157Z,101081.06
2022-09-23T20:08:46.549Z,101076.06
2022-09-23T20:13:56.157Z,101065.31
2022-09-23T20:19:04.139Z,101062.12
2022-09-23T20:24:12.102Z,101059.23
2022-09-23T20:29:17.512Z,101053.48
2022-09-23T20:34:23.592Z,101048.04
2022-09-23T20:39:29.345Z,101045.24
2022-09-23T20:44:34.763Z,101042.66
2022-09-23T20:49:41.842Z,101046.65
2022-09-23T20:54:47.505Z,101040.81
2022-09-23T20:59:53.269Z,101044.72
2022-09-23T21:04:58.680Z,101038.67
2022-09-23T21:10:05.875Z,101040.45
2022-09-23T21:15:11.996Z,101030.47
2022-09-23T21:20:17.523Z,101025.20
2022-09-23T21:25:28.095Z,101019.57
2022-09-23T21:30:30.111Z,101025.67
2022-09-23T21:35:35.508Z,101021.61
2022-09-23T21:40:59.124Z,101029.83
2022-09-23T21:46:07.836Z,101017.98
2022-09-23T21:51:16.136Z,101019.49
2022-09-23T21:56:24.561Z,101019.75
2022-09-23T22:01:35.649Z,101021.09
2022-09-23T22:06:41.224Z,101019.63
2022-09-23T22:12:05.103Z,101024.41
2022-09-23T22:17:12.694Z,101010.03
2022-09-23T22:22:19.409Z,101015.03
2022-09-23T22:27:26.695Z,101015.07
2022-09-23T22:32:41.230Z,101011.78
2022-09-23T22:37:48.057Z,100996.91
2022-09-23T22:42:54.458Z,101001.01
2022-09-23T22:47:59.864Z,100992.16
2022-09-23T22:53:05.544Z,100987.06
2022-09-23T22:58:31.191Z,100993.84
2022-09-23T23:03:19.945Z,100994.91
2022-09-23T23:08:27.078Z,100984.75
2022-09-23T23:13:33.471Z,100987.98
2022-09-23T23:18:45.535Z,100983.19
2022-09-23T23:23:53.454Z,100990.05
2022-09-23T23:29:00.016Z,100975.97
2022-09-23T23:34:07.951Z,100976.14
2022-09-23T23:39:14.605Z,100972.19
2022-09-23T23:44:20.008Z,100968.97
2022-09-23T23:49:25.771Z,100972.56
2022-09-23T23:54:33.044Z,100968.63
2022-09-23T23:59:38.611Z,100971.39
